sensor_id;sensor_type;location;lat;lon;timestamp;P1;durP1;ratioP1;P2;durP2;ratioP2
8556;SDS011;4316;53.840;10.762;2023-05-31T00:01:44;7.83;;;2.30;;
8556;SDS011;4316;53.840;10.762;2023-05-31T00:04:10;5.40;;;2.37;;
8556;SDS011;4316;53.840;10.762;2023-05-31T00:06:35;2.57;;;2.37;;
8556;SDS011;4316;53.840;10.762;2023-05-31T00:09:01;5.67;;;2.53;;
8556;SDS011;4316;53.840;10.762;2023-05-31T00:11:27;3.83;;;2.47;;
8556;SDS011;4316;53.840;10.762;2023-05-31T00:13:53;6.23;;;2.60;;
8556;SDS011;4316;53.840;10.762;2023-05-31T00:16:18;6.57;;;2.50;;
8556;SDS011;4316;53.840;10.762;2023-05-31T00:18:44;4.77;;;2.37;;
8556;SDS011;4316;53.840;10.762;2023-05-31T00:21:10;7.77;;;2.70;;
8556;SDS011;4316;53.840;10.762;2023-05-31T00:23:35;4.57;;;2.30;;
8556;SDS011;4316;53.840;10.762;2023-05-31T00:26:01;3.60;;;2.33;;
8556;SDS011;4316;53.840;10.762;2023-05-31T00:28:26;5.77;;;2.63;;
8556;SDS011;4316;53.840;10.762;2023-05-31T00:30:52;3.17;;;2.00;;
8556;SDS011;4316;53.840;10.762;2023-05-31T00:33:18;4.60;;;2.10;;
8556;SDS011;4316;53.840;10.762;2023-05-31T00:35:43;4.13;;;2.37;;
8556;SDS011;4316;53.840;10.762;2023-05-31T00:38:09;5.87;;;2.43;;
8556;SDS011;4316;53.840;10.762;2023-05-31T00:40:35;3.60;;;2.53;;
8556;SDS011;4316;53.840;10.762;2023-05-31T00:43:00;3.67;;;2.37;;
8556;SDS011;4316;53.840;10.762;2023-05-31T00:45:27;3.30;;;2.03;;
8556;SDS011;4316;53.840;10.762;2023-05-31T00:47:55;4.47;;;2.50;;
8556;SDS011;4316;53.840;10.762;2023-05-31T00:50:21;9.10;;;3.20;;
8556;SDS011;4316;53.840;10.762;2023-05-31T00:52:48;5.50;;;2.50;;
8556;SDS011;4316;53.840;10.762;2023-05-31T00:55:16;5.40;;;2.53;;
8556;SDS011;4316;53.840;10.762;2023-05-31T00:57:42;7.40;;;2.87;;
8556;SDS011;4316;53.840;10.762;2023-05-31T01:00:08;7.70;;;2.73;;
8556;SDS011;4316;53.840;10.762;2023-05-31T01:02:34;4.73;;;2.40;;
8556;SDS011;4316;53.840;10.762;2023-05-31T01:05:04;7.47;;;2.60;;
8556;SDS011;4316;53.840;10.762;2023-05-31T01:07:30;5.47;;;2.77;;
8556;SDS011;4316;53.840;10.762;2023-05-31T01:09:56;3.03;;;2.17;;
8556;SDS011;4316;53.840;10.762;2023-05-31T01:12:25;5.47;;;2.73;;
8556;SDS011;4316;53.840;10.762;2023-05-31T01:17:44;4.87;;;2.90;;
8556;SDS011;4316;53.840;10.762;2023-05-31T01:20:34;3.73;;;2.87;;
8556;SDS011;4316;53.840;10.762;2023-05-31T01:23:19;4.37;;;2.67;;
8556;SDS011;4316;53.840;10.762;2023-05-31T01:28:42;3.53;;;2.67;;
8556;SDS011;4316;53.840;10.762;2023-05-31T01:31:10;5.70;;;2.60;;
8556;SDS011;4316;53.840;10.762;2023-05-31T01:33:41;5.23;;;2.43;;
8556;SDS011;4316;53.840;10.762;2023-05-31T01:36:08;4.17;;;2.50;;
8556;SDS011;4316;53.840;10.762;2023-05-31T01:38:34;4.47;;;2.40;;
8556;SDS011;4316;53.840;10.762;2023-05-31T01:41:00;7.50;;;2.50;;
8556;SDS011;4316;53.840;10.762;2023-05-31T01:43:28;4.73;;;2.70;;
8556;SDS011;4316;53.840;10.762;2023-05-31T01:45:55;4.13;;;2.30;;
8556;SDS011;4316;53.840;10.762;2023-05-31T01:48:23;4.80;;;2.17;;
8556;SDS011;4316;53.840;10.762;2023-05-31T01:50:51;8.73;;;2.87;;
8556;SDS011;4316;53.840;10.762;2023-05-31T01:53:17;7.37;;;2.80;;
8556;SDS011;4316;53.840;10.762;2023-05-31T01:55:43;4.97;;;2.90;;
8556;SDS011;4316;53.840;10.762;2023-05-31T01:58:10;3.27;;;2.27;;
8556;SDS011;4316;53.840;10.762;2023-05-31T02:00:36;2.87;;;2.53;;
8556;SDS011;4316;53.840;10.762;2023-05-31T02:03:02;4.67;;;2.37;;
8556;SDS011;4316;53.840;10.762;2023-05-31T02:05:29;5.97;;;3.00;;
8556;SDS011;4316;53.840;10.762;2023-05-31T02:07:55;3.73;;;2.77;;
8556;SDS011;4316;53.840;10.762;2023-05-31T02:10:21;4.40;;;2.40;;
8556;SDS011;4316;53.840;10.762;2023-05-31T02:12:47;3.37;;;2.63;;
8556;SDS011;4316;53.840;10.762;2023-05-31T02:15:15;7.47;;;2.80;;
8556;SDS011;4316;53.840;10.762;2023-05-31T02:17:45;9.37;;;3.17;;
8556;SDS011;4316;53.840;10.762;2023-05-31T02:20:15;5.37;;;2.80;;
8556;SDS011;4316;53.840;10.762;2023-05-31T02:22:42;2.93;;;2.50;;
8556;SDS011;4316;53.840;10.762;2023-05-31T02:25:11;3.57;;;2.50;;
8556;SDS011;4316;53.840;10.762;2023-05-31T02:27:39;7.13;;;2.90;;
8556;SDS011;4316;53.840;10.762;2023-05-31T02:30:06;3.77;;;2.17;;
8556;SDS011;4316;53.840;10.762;2023-05-31T02:32:32;4.90;;;2.73;;
8556;SDS011;4316;53.840;10.762;2023-05-31T02:35:06;3.33;;;2.60;;
8556;SDS011;4316;53.840;10.762;2023-05-31T02:37:33;2.30;;;2.10;;
8556;SDS011;4316;53.840;10.762;2023-05-31T02:40:00;3.23;;;2.37;;
8556;SDS011;4316;53.840;10.762;2023-05-31T02:42:26;5.03;;;3.20;;
8556;SDS011;4316;53.840;10.762;2023-05-31T02:44:51;2.40;;;2.13;;
8556;SDS011;4316;53.840;10.762;2023-05-31T02:47:17;3.70;;;2.40;;
8556;SDS011;4316;53.840;10.762;2023-05-31T02:49:44;14.97;;;2.50;;
8556;SDS011;4316;53.840;10.762;2023-05-31T02:52:09;6.90;;;2.60;;
8556;SDS011;4316;53.840;10.762;2023-05-31T02:54:58;2.60;;;2.40;;
8556;SDS011;4316;53.840;10.762;2023-05-31T02:57:27;2.73;;;2.17;;
8556;SDS011;4316;53.840;10.762;2023-05-31T03:00:00;2.93;;;2.17;;
8556;SDS011;4316;53.840;10.762;2023-05-31T03:02:38;4.37;;;2.30;;
8556;SDS011;4316;53.840;10.762;2023-05-31T03:05:13;3.63;;;2.63;;
8556;SDS011;4316;53.840;10.762;2023-05-31T03:07:40;2.33;;;2.13;;
8556;SDS011;4316;53.840;10.762;2023-05-31T03:10:06;3.60;;;2.40;;
8556;SDS011;4316;53.840;10.762;2023-05-31T03:12:32;8.07;;;2.70;;
8556;SDS011;4316;53.840;10.762;2023-05-31T03:14:58;4.43;;;2.57;;
8556;SDS011;4316;53.840;10.762;2023-05-31T03:17:24;4.83;;;2.87;;
8556;SDS011;4316;53.840;10.762;2023-05-31T03:19:50;3.00;;;2.73;;
8556;SDS011;4316;53.840;10.762;2023-05-31T03:22:16;3.00;;;2.70;;
8556;SDS011;4316;53.840;10.762;2023-05-31T03:24:41;5.77;;;2.73;;
8556;SDS011;4316;53.840;10.762;2023-05-31T03:27:07;2.77;;;2.57;;
8556;SDS011;4316;53.840;10.762;2023-05-31T03:29:36;2.60;;;2.40;;
8556;SDS011;4316;53.840;10.762;2023-05-31T03:32:04;2.70;;;2.50;;
8556;SDS011;4316;53.840;10.762;2023-05-31T03:34:30;2.97;;;2.57;;
8556;SDS011;4316;53.840;10.762;2023-05-31T03:36:58;5.90;;;2.83;;
8556;SDS011;4316;53.840;10.762;2023-05-31T03:39:44;4.80;;;2.47;;
8556;SDS011;4316;53.840;10.762;2023-05-31T03:42:21;3.70;;;2.80;;
8556;SDS011;4316;53.840;10.762;2023-05-31T03:44:46;4.20;;;2.87;;
8556;SDS011;4316;53.840;10.762;2023-05-31T03:47:12;8.37;;;3.13;;
8556;SDS011;4316;53.840;10.762;2023-05-31T03:49:37;4.00;;;2.80;;
8556;SDS011;4316;53.840;10.762;2023-05-31T03:52:04;3.40;;;3.10;;
8556;SDS011;4316;53.840;10.762;2023-05-31T03:54:31;4.03;;;2.67;;
8556;SDS011;4316;53.840;10.762;2023-05-31T03:56:56;3.37;;;2.60;;
8556;SDS011;4316;53.840;10.762;2023-05-31T03:59:22;2.70;;;2.50;;
8556;SDS011;4316;53.840;10.762;2023-05-31T04:01:48;8.50;;;2.90;;
8556;SDS011;4316;53.840;10.762;2023-05-31T04:04:14;5.30;;;2.40;;
8556;SDS011;4316;53.840;10.762;2023-05-31T04:06:39;5.23;;;2.57;;
8556;SDS011;4316;53.840;10.762;2023-05-31T04:09:05;2.63;;;2.43;;
8556;SDS011;4316;53.840;10.762;2023-05-31T04:11:30;3.77;;;3.10;;
8556;SDS011;4316;53.840;10.762;2023-05-31T04:13:56;4.13;;;3.70;;
8556;SDS011;4316;53.840;10.762;2023-05-31T04:16:23;7.80;;;6.17;;
8556;SDS011;4316;53.840;10.762;2023-05-31T04:18:49;6.73;;;5.80;;
8556;SDS011;4316;53.840;10.762;2023-05-31T04:21:15;7.63;;;4.90;;
8556;SDS011;4316;53.840;10.762;2023-05-31T04:23:41;3.57;;;3.10;;
8556;SDS011;4316;53.840;10.762;2023-05-31T04:26:06;3.27;;;2.97;;
8556;SDS011;4316;53.840;10.762;2023-05-31T04:28:32;3.93;;;2.73;;
8556;SDS011;4316;53.840;10.762;2023-05-31T04:30:58;6.03;;;4.40;;
8556;SDS011;4316;53.840;10.762;2023-05-31T04:33:24;4.77;;;3.93;;
8556;SDS011;4316;53.840;10.762;2023-05-31T04:35:54;7.80;;;4.50;;
8556;SDS011;4316;53.840;10.762;2023-05-31T04:38:21;5.73;;;2.83;;
8556;SDS011;4316;53.840;10.762;2023-05-31T04:40:52;2.70;;;2.50;;
8556;SDS011;4316;53.840;10.762;2023-05-31T04:43:19;5.53;;;3.30;;
8556;SDS011;4316;53.840;10.762;2023-05-31T04:45:45;8.47;;;3.00;;
8556;SDS011;4316;53.840;10.762;2023-05-31T04:48:12;3.93;;;3.40;;
8556;SDS011;4316;53.840;10.762;2023-05-31T04:50:40;6.90;;;4.17;;
8556;SDS011;4316;53.840;10.762;2023-05-31T04:53:05;6.17;;;4.77;;
8556;SDS011;4316;53.840;10.762;2023-05-31T04:55:31;10.60;;;3.97;;
8556;SDS011;4316;53.840;10.762;2023-05-31T04:58:03;6.87;;;3.00;;
8556;SDS011;4316;53.840;10.762;2023-05-31T05:00:30;3.43;;;3.10;;
8556;SDS011;4316;53.840;10.762;2023-05-31T05:03:04;5.70;;;3.60;;
8556;SDS011;4316;53.840;10.762;2023-05-31T05:05:30;15.70;;;8.13;;
8556;SDS011;4316;53.840;10.762;2023-05-31T05:07:56;7.57;;;5.30;;
8556;SDS011;4316;53.840;10.762;2023-05-31T05:10:23;8.20;;;3.90;;
8556;SDS011;4316;53.840;10.762;2023-05-31T05:12:49;5.70;;;3.73;;
8556;SDS011;4316;53.840;10.762;2023-05-31T05:15:15;4.50;;;3.50;;
8556;SDS011;4316;53.840;10.762;2023-05-31T05:17:41;6.43;;;3.87;;
8556;SDS011;4316;53.840;10.762;2023-05-31T05:20:07;4.67;;;3.90;;
8556;SDS011;4316;53.840;10.762;2023-05-31T05:22:35;9.30;;;3.77;;
8556;SDS011;4316;53.840;10.762;2023-05-31T05:25:00;6.50;;;4.17;;
8556;SDS011;4316;53.840;10.762;2023-05-31T05:27:26;6.57;;;3.93;;
8556;SDS011;4316;53.840;10.762;2023-05-31T05:29:53;3.97;;;3.57;;
8556;SDS011;4316;53.840;10.762;2023-05-31T05:32:18;6.33;;;3.73;;
8556;SDS011;4316;53.840;10.762;2023-05-31T05:34:44;5.20;;;3.93;;
8556;SDS011;4316;53.840;10.762;2023-05-31T05:37:10;5.30;;;3.90;;
8556;SDS011;4316;53.840;10.762;2023-05-31T05:39:36;5.50;;;3.60;;
8556;SDS011;4316;53.840;10.762;2023-05-31T05:42:02;6.63;;;3.73;;
8556;SDS011;4316;53.840;10.762;2023-05-31T05:44:28;7.40;;;3.73;;
8556;SDS011;4316;53.840;10.762;2023-05-31T05:46:54;9.00;;;4.27;;
8556;SDS011;4316;53.840;10.762;2023-05-31T05:49:22;6.83;;;4.03;;
8556;SDS011;4316;53.840;10.762;2023-05-31T05:51:47;5.80;;;3.30;;
8556;SDS011;4316;53.840;10.762;2023-05-31T05:54:13;8.40;;;3.37;;
8556;SDS011;4316;53.840;10.762;2023-05-31T05:56:39;7.53;;;3.70;;
8556;SDS011;4316;53.840;10.762;2023-05-31T05:59:06;6.50;;;3.60;;
8556;SDS011;4316;53.840;10.762;2023-05-31T06:01:50;12.57;;;4.43;;
8556;SDS011;4316;53.840;10.762;2023-05-31T06:04:18;3.90;;;3.33;;
8556;SDS011;4316;53.840;10.762;2023-05-31T06:06:44;8.17;;;3.20;;
8556;SDS011;4316;53.840;10.762;2023-05-31T06:09:09;3.90;;;2.77;;
8556;SDS011;4316;53.840;10.762;2023-05-31T06:11:36;6.07;;;3.30;;
8556;SDS011;4316;53.840;10.762;2023-05-31T06:14:01;7.13;;;2.80;;
8556;SDS011;4316;53.840;10.762;2023-05-31T06:16:33;6.60;;;2.83;;
8556;SDS011;4316;53.840;10.762;2023-05-31T06:18:59;7.63;;;2.80;;
8556;SDS011;4316;53.840;10.762;2023-05-31T06:21:25;7.57;;;3.40;;
8556;SDS011;4316;53.840;10.762;2023-05-31T06:23:51;7.60;;;3.37;;
8556;SDS011;4316;53.840;10.762;2023-05-31T06:26:17;6.20;;;2.27;;
8556;SDS011;4316;53.840;10.762;2023-05-31T06:28:44;7.33;;;2.80;;
8556;SDS011;4316;53.840;10.762;2023-05-31T06:31:27;8.27;;;2.30;;
8556;SDS011;4316;53.840;10.762;2023-05-31T06:33:53;4.57;;;2.10;;
8556;SDS011;4316;53.840;10.762;2023-05-31T06:36:19;7.87;;;2.40;;
8556;SDS011;4316;53.840;10.762;2023-05-31T06:38:44;5.30;;;2.20;;
8556;SDS011;4316;53.840;10.762;2023-05-31T06:41:12;7.10;;;2.50;;
8556;SDS011;4316;53.840;10.762;2023-05-31T06:43:38;5.40;;;2.30;;
8556;SDS011;4316;53.840;10.762;2023-05-31T06:46:33;6.53;;;2.60;;
8556;SDS011;4316;53.840;10.762;2023-05-31T06:49:18;12.17;;;2.30;;
8556;SDS011;4316;53.840;10.762;2023-05-31T06:51:49;8.00;;;2.67;;
8556;SDS011;4316;53.840;10.762;2023-05-31T06:54:27;9.10;;;2.20;;
8556;SDS011;4316;53.840;10.762;2023-05-31T06:56:55;5.60;;;2.07;;
8556;SDS011;4316;53.840;10.762;2023-05-31T06:59:20;6.43;;;2.57;;
8556;SDS011;4316;53.840;10.762;2023-05-31T07:01:46;6.20;;;2.30;;
8556;SDS011;4316;53.840;10.762;2023-05-31T07:04:12;6.07;;;2.70;;
8556;SDS011;4316;53.840;10.762;2023-05-31T07:06:38;7.10;;;2.30;;
8556;SDS011;4316;53.840;10.762;2023-05-31T07:09:04;2.72;;;1.90;;
8556;SDS011;4316;53.840;10.762;2023-05-31T07:11:40;10.30;;;2.47;;
8556;SDS011;4316;53.840;10.762;2023-05-31T07:14:07;5.60;;;2.20;;
8556;SDS011;4316;53.840;10.762;2023-05-31T07:16:33;8.75;;;2.33;;
8556;SDS011;4316;53.840;10.762;2023-05-31T07:18:59;10.45;;;3.13;;
8556;SDS011;4316;53.840;10.762;2023-05-31T07:21:25;6.65;;;2.55;;
8556;SDS011;4316;53.840;10.762;2023-05-31T07:23:50;6.93;;;2.10;;
8556;SDS011;4316;53.840;10.762;2023-05-31T07:26:16;4.28;;;2.13;;
8556;SDS011;4316;53.840;10.762;2023-05-31T07:28:43;6.18;;;2.30;;
8556;SDS011;4316;53.840;10.762;2023-05-31T07:31:09;10.18;;;2.10;;
8556;SDS011;4316;53.840;10.762;2023-05-31T07:33:35;10.68;;;2.30;;
8556;SDS011;4316;53.840;10.762;2023-05-31T07:36:01;9.35;;;2.38;;
8556;SDS011;4316;53.840;10.762;2023-05-31T07:38:27;3.78;;;1.70;;
8556;SDS011;4316;53.840;10.762;2023-05-31T07:40:53;9.52;;;2.13;;
8556;SDS011;4316;53.840;10.762;2023-05-31T07:43:18;7.47;;;2.22;;
8556;SDS011;4316;53.840;10.762;2023-05-31T07:45:49;4.07;;;1.98;;
8556;SDS011;4316;53.840;10.762;2023-05-31T07:48:19;9.60;;;2.17;;
8556;SDS011;4316;53.840;10.762;2023-05-31T07:50:45;6.90;;;2.45;;
8556;SDS011;4316;53.840;10.762;2023-05-31T07:53:11;5.82;;;1.95;;
8556;SDS011;4316;53.840;10.762;2023-05-31T07:55:36;11.15;;;2.15;;
8556;SDS011;4316;53.840;10.762;2023-05-31T07:58:02;10.38;;;2.05;;
8556;SDS011;4316;53.840;10.762;2023-05-31T08:00:28;5.32;;;2.00;;
8556;SDS011;4316;53.840;10.762;2023-05-31T08:02:54;5.05;;;1.90;;
8556;SDS011;4316;53.840;10.762;2023-05-31T08:05:20;6.10;;;1.75;;
8556;SDS011;4316;53.840;10.762;2023-05-31T08:07:45;3.70;;;1.98;;
8556;SDS011;4316;53.840;10.762;2023-05-31T08:10:12;4.75;;;2.17;;
8556;SDS011;4316;53.840;10.762;2023-05-31T08:12:38;10.73;;;2.05;;
8556;SDS011;4316;53.840;10.762;2023-05-31T08:15:04;6.47;;;1.83;;
8556;SDS011;4316;53.840;10.762;2023-05-31T08:17:30;4.60;;;1.90;;
8556;SDS011;4316;53.840;10.762;2023-05-31T08:19:56;13.70;;;2.33;;
8556;SDS011;4316;53.840;10.762;2023-05-31T08:22:22;14.77;;;1.92;;
8556;SDS011;4316;53.840;10.762;2023-05-31T08:24:47;5.07;;;2.00;;
8556;SDS011;4316;53.840;10.762;2023-05-31T08:27:14;6.35;;;1.73;;
8556;SDS011;4316;53.840;10.762;2023-05-31T08:29:40;6.43;;;1.88;;
8556;SDS011;4316;53.840;10.762;2023-05-31T08:32:05;11.20;;;2.03;;
8556;SDS011;4316;53.840;10.762;2023-05-31T08:34:31;3.83;;;1.67;;
8556;SDS011;4316;53.840;10.762;2023-05-31T08:36:56;4.85;;;1.85;;
8556;SDS011;4316;53.840;10.762;2023-05-31T08:39:23;5.65;;;1.90;;
8556;SDS011;4316;53.840;10.762;2023-05-31T08:41:52;2.60;;;1.50;;
8556;SDS011;4316;53.840;10.762;2023-05-31T08:44:24;5.40;;;2.25;;
8556;SDS011;4316;53.840;10.762;2023-05-31T08:46:50;6.72;;;2.22;;
8556;SDS011;4316;53.840;10.762;2023-05-31T08:49:16;4.70;;;2.20;;
8556;SDS011;4316;53.840;10.762;2023-05-31T08:51:46;4.85;;;1.90;;
8556;SDS011;4316;53.840;10.762;2023-05-31T08:54:13;4.40;;;1.85;;
8556;SDS011;4316;53.840;10.762;2023-05-31T08:56:40;6.63;;;2.17;;
8556;SDS011;4316;53.840;10.762;2023-05-31T08:59:10;4.72;;;1.92;;
8556;SDS011;4316;53.840;10.762;2023-05-31T09:01:41;6.07;;;1.50;;
8556;SDS011;4316;53.840;10.762;2023-05-31T09:04:08;4.55;;;1.83;;
8556;SDS011;4316;53.840;10.762;2023-05-31T09:06:34;4.25;;;1.77;;
8556;SDS011;4316;53.840;10.762;2023-05-31T09:09:01;2.80;;;1.48;;
8556;SDS011;4316;53.840;10.762;2023-05-31T09:11:27;3.40;;;1.63;;
8556;SDS011;4316;53.840;10.762;2023-05-31T09:13:53;3.42;;;1.35;;
8556;SDS011;4316;53.840;10.762;2023-05-31T09:16:20;6.28;;;1.17;;
8556;SDS011;4316;53.840;10.762;2023-05-31T09:18:47;1.92;;;1.58;;
8556;SDS011;4316;53.840;10.762;2023-05-31T09:21:13;3.58;;;1.90;;
8556;SDS011;4316;53.840;10.762;2023-05-31T09:23:51;4.03;;;1.85;;
8556;SDS011;4316;53.840;10.762;2023-05-31T09:26:21;4.15;;;1.83;;
8556;SDS011;4316;53.840;10.762;2023-05-31T09:28:48;2.35;;;1.48;;
8556;SDS011;4316;53.840;10.762;2023-05-31T09:31:18;3.38;;;1.80;;
8556;SDS011;4316;53.840;10.762;2023-05-31T09:33:45;5.85;;;1.58;;
8556;SDS011;4316;53.840;10.762;2023-05-31T09:36:13;4.32;;;1.95;;
8556;SDS011;4316;53.840;10.762;2023-05-31T09:38:39;12.05;;;1.50;;
8556;SDS011;4316;53.840;10.762;2023-05-31T09:41:20;2.80;;;1.58;;
8556;SDS011;4316;53.840;10.762;2023-05-31T09:43:46;3.75;;;1.77;;
8556;SDS011;4316;53.840;10.762;2023-05-31T09:46:14;3.00;;;1.63;;
8556;SDS011;4316;53.840;10.762;2023-05-31T09:48:41;5.93;;;1.48;;
8556;SDS011;4316;53.840;10.762;2023-05-31T09:51:08;8.68;;;1.85;;
8556;SDS011;4316;53.840;10.762;2023-05-31T09:53:40;2.90;;;1.40;;
8556;SDS011;4316;53.840;10.762;2023-05-31T09:56:10;8.25;;;1.80;;
8556;SDS011;4316;53.840;10.762;2023-05-31T09:58:41;4.18;;;1.70;;
8556;SDS011;4316;53.840;10.762;2023-05-31T10:01:07;4.57;;;1.88;;
8556;SDS011;4316;53.840;10.762;2023-05-31T10:03:34;5.68;;;2.38;;
8556;SDS011;4316;53.840;10.762;2023-05-31T10:06:01;3.42;;;1.70;;
8556;SDS011;4316;53.840;10.762;2023-05-31T10:08:27;3.80;;;1.45;;
8556;SDS011;4316;53.840;10.762;2023-05-31T10:10:54;5.20;;;1.65;;
8556;SDS011;4316;53.840;10.762;2023-05-31T10:13:22;8.60;;;1.83;;
8556;SDS011;4316;53.840;10.762;2023-05-31T10:15:51;3.60;;;1.48;;
8556;SDS011;4316;53.840;10.762;2023-05-31T10:18:21;3.03;;;1.55;;
8556;SDS011;4316;53.840;10.762;2023-05-31T10:20:53;5.85;;;1.20;;
8556;SDS011;4316;53.840;10.762;2023-05-31T10:23:24;3.67;;;2.00;;
8556;SDS011;4316;53.840;10.762;2023-05-31T10:25:55;3.10;;;1.65;;
8556;SDS011;4316;53.840;10.762;2023-05-31T10:28:52;1.67;;;1.20;;
8556;SDS011;4316;53.840;10.762;2023-05-31T10:31:22;4.80;;;1.45;;
8556;SDS011;4316;53.840;10.762;2023-05-31T10:33:52;2.95;;;1.52;;
8556;SDS011;4316;53.840;10.762;2023-05-31T10:36:23;5.85;;;1.45;;
8556;SDS011;4316;53.840;10.762;2023-05-31T10:38:59;9.95;;;1.50;;
8556;SDS011;4316;53.840;10.762;2023-05-31T10:41:33;1.77;;;1.30;;
8556;SDS011;4316;53.840;10.762;2023-05-31T10:44:10;4.70;;;1.25;;
8556;SDS011;4316;53.840;10.762;2023-05-31T10:46:41;6.22;;;2.25;;
8556;SDS011;4316;53.840;10.762;2023-05-31T10:49:09;5.32;;;1.40;;
8556;SDS011;4316;53.840;10.762;2023-05-31T10:51:45;2.75;;;1.58;;
8556;SDS011;4316;53.840;10.762;2023-05-31T10:54:21;5.90;;;1.63;;
8556;SDS011;4316;53.840;10.762;2023-05-31T10:56:52;2.15;;;1.38;;
8556;SDS011;4316;53.840;10.762;2023-05-31T10:59:19;5.80;;;2.13;;
8556;SDS011;4316;53.840;10.762;2023-05-31T11:01:44;5.78;;;1.33;;
8556;SDS011;4316;53.840;10.762;2023-05-31T11:04:20;3.38;;;1.45;;
8556;SDS011;4316;53.840;10.762;2023-05-31T11:06:47;2.72;;;1.27;;
8556;SDS011;4316;53.840;10.762;2023-05-31T11:09:16;4.78;;;1.10;;
8556;SDS011;4316;53.840;10.762;2023-05-31T11:11:44;2.70;;;1.10;;
8556;SDS011;4316;53.840;10.762;2023-05-31T11:14:27;3.00;;;1.30;;
8556;SDS011;4316;53.840;10.762;2023-05-31T11:19:29;2.75;;;1.40;;
8556;SDS011;4316;53.840;10.762;2023-05-31T11:21:56;1.40;;;1.23;;
8556;SDS011;4316;53.840;10.762;2023-05-31T11:24:31;5.93;;;1.35;;
8556;SDS011;4316;53.840;10.762;2023-05-31T11:27:19;4.28;;;1.98;;
8556;SDS011;4316;53.840;10.762;2023-05-31T11:32:18;3.28;;;1.42;;
8556;SDS011;4316;53.840;10.762;2023-05-31T11:34:52;2.10;;;1.15;;
8556;SDS011;4316;53.840;10.762;2023-05-31T11:37:30;3.60;;;1.58;;
8556;SDS011;4316;53.840;10.762;2023-05-31T11:40:06;2.92;;;1.27;;
8556;SDS011;4316;53.840;10.762;2023-05-31T11:45:04;2.97;;;1.30;;
8556;SDS011;4316;53.840;10.762;2023-05-31T11:47:51;7.82;;;1.23;;
8556;SDS011;4316;53.840;10.762;2023-05-31T11:50:40;2.30;;;1.30;;
8556;SDS011;4316;53.840;10.762;2023-05-31T11:53:09;5.05;;;1.40;;
8556;SDS011;4316;53.840;10.762;2023-05-31T11:55:35;5.35;;;1.65;;
8556;SDS011;4316;53.840;10.762;2023-05-31T11:58:04;5.43;;;1.67;;
8556;SDS011;4316;53.840;10.762;2023-05-31T12:00:31;2.38;;;1.50;;
8556;SDS011;4316;53.840;10.762;2023-05-31T12:02:57;7.45;;;1.67;;
8556;SDS011;4316;53.840;10.762;2023-05-31T12:05:23;5.50;;;1.42;;
8556;SDS011;4316;53.840;10.762;2023-05-31T12:07:52;7.90;;;1.60;;
8556;SDS011;4316;53.840;10.762;2023-05-31T12:10:19;2.45;;;1.50;;
8556;SDS011;4316;53.840;10.762;2023-05-31T12:12:45;4.15;;;1.27;;
8556;SDS011;4316;53.840;10.762;2023-05-31T12:15:11;4.90;;;1.38;;
8556;SDS011;4316;53.840;10.762;2023-05-31T12:17:39;6.10;;;1.58;;
8556;SDS011;4316;53.840;10.762;2023-05-31T12:20:05;5.40;;;1.92;;
8556;SDS011;4316;53.840;10.762;2023-05-31T12:22:33;4.40;;;1.50;;
8556;SDS011;4316;53.840;10.762;2023-05-31T12:24:58;4.85;;;1.65;;
8556;SDS011;4316;53.840;10.762;2023-05-31T12:27:26;5.50;;;1.75;;
8556;SDS011;4316;53.840;10.762;2023-05-31T12:29:56;16.38;;;1.73;;
8556;SDS011;4316;53.840;10.762;2023-05-31T12:32:22;6.22;;;1.92;;
8556;SDS011;4316;53.840;10.762;2023-05-31T12:34:52;3.42;;;1.45;;
8556;SDS011;4316;53.840;10.762;2023-05-31T12:37:28;2.92;;;1.73;;
8556;SDS011;4316;53.840;10.762;2023-05-31T12:40:12;10.10;;;1.83;;
8556;SDS011;4316;53.840;10.762;2023-05-31T12:42:41;3.30;;;1.70;;
8556;SDS011;4316;53.840;10.762;2023-05-31T12:45:07;4.32;;;1.50;;
8556;SDS011;4316;53.840;10.762;2023-05-31T12:47:34;6.65;;;1.70;;
8556;SDS011;4316;53.840;10.762;2023-05-31T12:50:01;1.88;;;1.25;;
8556;SDS011;4316;53.840;10.762;2023-05-31T12:52:36;1.17;;;1.05;;
8556;SDS011;4316;53.840;10.762;2023-05-31T12:55:06;1.52;;;1.20;;
8556;SDS011;4316;53.840;10.762;2023-05-31T12:57:33;6.43;;;1.42;;
8556;SDS011;4316;53.840;10.762;2023-05-31T13:00:04;2.00;;;0.90;;
8556;SDS011;4316;53.840;10.762;2023-05-31T13:02:34;1.20;;;1.10;;
8556;SDS011;4316;53.840;10.762;2023-05-31T13:05:00;6.65;;;1.42;;
8556;SDS011;4316;53.840;10.762;2023-05-31T13:07:26;4.90;;;1.38;;
8556;SDS011;4316;53.840;10.762;2023-05-31T13:09:51;3.80;;;1.40;;
8556;SDS011;4316;53.840;10.762;2023-05-31T13:12:17;5.70;;;1.17;;
8556;SDS011;4316;53.840;10.762;2023-05-31T13:14:43;4.07;;;1.25;;
8556;SDS011;4316;53.840;10.762;2023-05-31T13:17:09;5.07;;;1.23;;
8556;SDS011;4316;53.840;10.762;2023-05-31T13:19:35;0.82;;;0.80;;
8556;SDS011;4316;53.840;10.762;2023-05-31T13:22:01;1.70;;;1.00;;
8556;SDS011;4316;53.840;10.762;2023-05-31T13:24:27;3.25;;;1.20;;
8556;SDS011;4316;53.840;10.762;2023-05-31T13:26:53;4.80;;;0.93;;
8556;SDS011;4316;53.840;10.762;2023-05-31T13:29:19;4.32;;;1.05;;
8556;SDS011;4316;53.840;10.762;2023-05-31T13:31:47;2.85;;;0.82;;
8556;SDS011;4316;53.840;10.762;2023-05-31T13:34:13;3.08;;;1.00;;
8556;SDS011;4316;53.840;10.762;2023-05-31T13:36:39;1.67;;;0.80;;
8556;SDS011;4316;53.840;10.762;2023-05-31T13:39:05;3.55;;;0.90;;
8556;SDS011;4316;53.840;10.762;2023-05-31T13:41:30;2.72;;;1.27;;
8556;SDS011;4316;53.840;10.762;2023-05-31T13:43:56;3.80;;;1.27;;
8556;SDS011;4316;53.840;10.762;2023-05-31T13:46:21;4.32;;;1.25;;
8556;SDS011;4316;53.840;10.762;2023-05-31T13:48:47;2.60;;;1.20;;
8556;SDS011;4316;53.840;10.762;2023-05-31T13:51:13;2.88;;;1.05;;
8556;SDS011;4316;53.840;10.762;2023-05-31T13:53:40;4.65;;;1.13;;
8556;SDS011;4316;53.840;10.762;2023-05-31T13:56:06;2.00;;;0.90;;
8556;SDS011;4316;53.840;10.762;2023-05-31T13:58:34;6.35;;;1.63;;
8556;SDS011;4316;53.840;10.762;2023-05-31T14:01:01;2.35;;;1.33;;
8556;SDS011;4316;53.840;10.762;2023-05-31T14:03:28;5.55;;;1.50;;
8556;SDS011;4316;53.840;10.762;2023-05-31T14:05:53;6.32;;;1.13;;
8556;SDS011;4316;53.840;10.762;2023-05-31T14:08:19;1.40;;;0.90;;
8556;SDS011;4316;53.840;10.762;2023-05-31T14:10:47;2.25;;;1.40;;
8556;SDS011;4316;53.840;10.762;2023-05-31T14:13:13;1.52;;;0.82;;
8556;SDS011;4316;53.840;10.762;2023-05-31T14:15:39;7.32;;;1.52;;
8556;SDS011;4316;53.840;10.762;2023-05-31T14:18:05;4.32;;;1.27;;
8556;SDS011;4316;53.840;10.762;2023-05-31T14:20:31;1.73;;;1.20;;
8556;SDS011;4316;53.840;10.762;2023-05-31T14:22:57;3.60;;;1.30;;
8556;SDS011;4316;53.840;10.762;2023-05-31T14:25:22;3.45;;;1.20;;
8556;SDS011;4316;53.840;10.762;2023-05-31T14:27:48;2.78;;;1.08;;
8556;SDS011;4316;53.840;10.762;2023-05-31T14:30:13;1.83;;;1.02;;
8556;SDS011;4316;53.840;10.762;2023-05-31T14:32:39;1.20;;;1.10;;
8556;SDS011;4316;53.840;10.762;2023-05-31T14:35:05;7.47;;;1.10;;
8556;SDS011;4316;53.840;10.762;2023-05-31T14:37:31;1.73;;;1.08;;
8556;SDS011;4316;53.840;10.762;2023-05-31T14:39:57;1.95;;;0.90;;
8556;SDS011;4316;53.840;10.762;2023-05-31T14:42:22;3.55;;;1.20;;
8556;SDS011;4316;53.840;10.762;2023-05-31T14:44:48;1.88;;;1.35;;
8556;SDS011;4316;53.840;10.762;2023-05-31T14:47:14;3.25;;;1.00;;
8556;SDS011;4316;53.840;10.762;2023-05-31T14:49:39;2.42;;;0.95;;
8556;SDS011;4316;53.840;10.762;2023-05-31T14:52:05;6.55;;;1.20;;
8556;SDS011;4316;53.840;10.762;2023-05-31T14:54:34;2.53;;;1.30;;
8556;SDS011;4316;53.840;10.762;2023-05-31T14:56:59;3.95;;;1.25;;
8556;SDS011;4316;53.840;10.762;2023-05-31T14:59:26;2.97;;;1.20;;
8556;SDS011;4316;53.840;10.762;2023-05-31T15:01:53;2.45;;;1.52;;
8556;SDS011;4316;53.840;10.762;2023-05-31T15:04:19;12.48;;;1.67;;
8556;SDS011;4316;53.840;10.762;2023-05-31T15:06:45;4.85;;;1.60;;
8556;SDS011;4316;53.840;10.762;2023-05-31T15:09:11;2.83;;;1.60;;
8556;SDS011;4316;53.840;10.762;2023-05-31T15:11:37;8.73;;;1.55;;
8556;SDS011;4316;53.840;10.762;2023-05-31T15:14:03;15.70;;;1.90;;
8556;SDS011;4316;53.840;10.762;2023-05-31T15:16:29;6.90;;;2.00;;
8556;SDS011;4316;53.840;10.762;2023-05-31T15:18:55;3.88;;;1.50;;